Mulga, Alabama
Current Conditions -  °F | °C
As of 12:53 PM on Friday 21 Nov 2014 (Local Time) from KBHM Reporting Station
Clear Clear  
Wind Chill: 67°   Ceiling: Unl
Heat Index: 67°   Visibility: 10mi
Dew Point: 35°   Wind: 6mph
Humidity: 31%   Direction: 80°E
Pressure: 30.36"   Gusts: NA
Location:  33.55°N, 86.97°W
Report Text: KBHM 211853Z 08005KT 10SM CLR 20/02 A3036 RMK AO2 SLP277 T01940017
Loading
Personal Weather Stations






























Interactive Weather Map New forecast layout! Learn more

10-Day Weather Forecast

Advertisements
Track Severe Weather on mobile